Narrabarba, Australia

10:07 AM AEDT on January 24, 2017 (GMT +1100)
Lakeside Drive, Mallacoota, Victoria. | | Change Station

Elev 79 ft 37.54 °S, 149.75 °E | Updated 15 seconds ago

Mostly Cloudy
Mostly Cloudy
70.9 °F
Feels Like 73 °F
N
1.3
Wind Variable Wind from NE
Gusts 2.5 mph

Today
High -- | Low -- °F
--% Chance of Precip.
Yesterday
High -- | Low -- °F
Precip. -- in
Pressure 29.65 in
Visibility -9999.0 miles
Clouds
Heat Index 73 °F
Dew Point 62 °F
Humidity 74%
Rainfall 0.00 in
Snow Depth Not available.
6:06 AM 8:18 PM
Waning Crescent, 15% visible
METAR YMER 232200Z AUTO 13009KT //// // ////// 28/20 Q1004
Pressure 29.65 in
Visibility -9999.0 miles
Clouds
Heat Index 73 °F
Dew Point 62 °F
Humidity 74%
Rainfall 0.00 in
Snow Depth Not available.
6:06 AM 8:18 PM
Waning Crescent, 15% visible
METAR YMER 232200Z AUTO 13009KT //// // ////// 28/20 Q1004

Get Your Daily Forecast Email!

Thanks for signing up!

Be on the lookout for a verification email in your inbox.

You'll start receiving the daily forecast at 8 AM.

×

10-Day Weather Forecast

×

Almanac

Astronomy

Jan. 24, 2017 Rise Set
Actual Time
Civil Twilight
Nautical Twilight
Astronomical Twilight
Moon
Length of Visible Light
Length of Day
Tomorrow will be .
, % of the Moon is Illuminated

Today's Extremes

Country Highs Country Lows

Community

WunderPhotos

Upload Photos

1,962,540 photos uploaded!

WunderBlog® & News

Nearby

Air Quality

  Air Quality AQ Index Pollutant
Not available.

Snow Depth

Station Depth Elevation

Earthquake Activity

City Distance Mag. Time & Date
Minimum magnitude displayed is 2.5.

Coastal Water Temperatures

Place Temperature

Stations

Nearby Weather Stations

Station Location Temp. Windchill Dew Point Humidity Wind Precip. Elev Updated Type